Time;durP1;ratioP1;P1;durP2;ratioP2;P2;SDS_P1;SDS_P2;PMS_P1;PMS_P2;Temp;Humidity;BMP_temperature;BMP_pressure;BME280_temperature;BME280_humidity;BME280_pressure;Samples;Min_cycle;Max_cycle;Signal;HPM_P1;HPM_P2
2022/05/30 00:00:16;;;;;;;;;;;10.00;99.90;;;;;;4897972;29;20462;-56
2022/05/30 00:02:42;;;;;;;;;;;10.00;99.90;;;;;;4894364;29;19916;-55
2022/05/30 00:05:09;;;;;;;;;;;9.80;99.90;;;;;;4894864;29;20311;-55
2022/05/30 00:07:35;;;;;;;;;;;9.80;99.90;;;;;;4894724;29;19918;-55
2022/05/30 00:10:01;;;;;;;;;;;9.80;99.90;;;;;;4895497;29;20371;-55
2022/05/30 00:12:26;;;;;;;;;;;9.80;99.90;;;;;;4883707;29;19915;-56
2022/05/30 00:14:52;;;;;;;;;;;9.80;99.90;;;;;;4898042;29;19914;-56
2022/05/30 00:17:17;;;;;;;;;;;9.80;99.90;;;;;;4899370;29;19911;-56
2022/05/30 00:19:43;;;;;;;;;;;9.80;99.90;;;;;;4895424;29;20825;-56
2022/05/30 00:22:14;;;;;;;;;;;9.80;99.90;;;;;;4893351;29;19911;-56
2022/05/30 00:24:43;;;;;;;;;;;10.00;99.90;;;;;;4894214;29;19911;-55
2022/05/30 00:27:09;;;;;;;;;;;9.80;99.90;;;;;;4893552;29;19911;-56
2022/05/30 00:29:35;;;;;;;;;;;9.70;99.90;;;;;;4893999;29;19930;-56
2022/05/30 00:32:00;;;;;;;;;;;9.90;99.90;;;;;;4900057;29;19958;-56
2022/05/30 00:34:26;;;;;;;;;;;9.90;99.90;;;;;;4894004;29;20380;-56
2022/05/30 00:36:52;;;;;;;;;;;9.90;99.90;;;;;;4892317;29;19919;-56
2022/05/30 00:39:18;;;;;;;;;;;9.80;99.90;;;;;;4892911;29;19911;-57
2022/05/30 00:41:43;;;;;;;;;;;9.90;99.90;;;;;;4892195;29;20415;-55
2022/05/30 00:44:09;;;;;;;;;;;9.90;99.90;;;;;;4892930;29;19911;-56
2022/05/30 00:46:34;;;;;;;;;;;9.90;99.90;;;;;;4892998;29;19912;-56
2022/05/30 00:49:01;;;;;;;;;;;9.70;99.90;;;;;;4892316;29;19911;-56
2022/05/30 00:51:29;;;;;;;;;;;9.60;99.90;;;;;;4892615;29;19911;-56
2022/05/30 00:53:55;;;;;;;;;;;9.70;99.90;;;;;;4889121;29;19915;-56
2022/05/30 00:56:24;;;;;;;;;;;9.70;99.90;;;;;;4894546;29;19994;-56
2022/05/30 00:58:52;;;;;;;;;;;9.60;99.90;;;;;;4893797;29;19907;-57
2022/05/30 01:01:18;;;;;;;;;;;9.60;99.90;;;;;;4892501;29;20311;-56
2022/05/30 01:06:55;;;;;;;;;;;9.70;99.90;;;;;;4891611;29;19919;-56
2022/05/30 01:09:26;;;;;;;;;;;9.70;99.90;;;;;;4894817;29;19911;-56
2022/05/30 01:11:54;;;;;;;;;;;9.60;99.90;;;;;;4891568;29;20486;-56
2022/05/30 01:14:20;;;;;;;;;;;9.50;99.90;;;;;;4888897;29;20288;-55
2022/05/30 01:16:46;;;;;;;;;;;9.60;99.90;;;;;;4891396;29;19918;-56
2022/05/30 01:19:31;;;;;;;;;;;9.40;99.90;;;;;;4891448;29;19916;-57
2022/05/30 01:22:16;;;;;;;;;;;9.40;99.90;;;;;;4887566;29;19967;-56
2022/05/30 01:24:48;;;;;;;;;;;9.30;99.90;;;;;;4891214;29;19922;-56
2022/05/30 01:27:22;;;;;;;;;;;9.30;99.90;;;;;;4891849;29;20485;-56
2022/05/30 01:29:50;;;;;;;;;;;9.20;99.90;;;;;;4891296;29;19912;-57
2022/05/30 01:32:17;;;;;;;;;;;9.20;99.90;;;;;;4891249;29;19974;-56
2022/05/30 01:34:42;;;;;;;;;;;9.20;99.90;;;;;;4888901;29;19919;-57
2022/05/30 01:37:08;;;;;;;;;;;9.10;99.90;;;;;;4894024;29;20291;-56
2022/05/30 01:39:33;;;;;;;;;;;9.30;99.90;;;;;;4894018;29;19907;-56
2022/05/30 01:41:59;;;;;;;;;;;9.40;99.90;;;;;;4891220;29;19919;-56
2022/05/30 01:44:24;;;;;;;;;;;9.20;99.90;;;;;;4889721;29;20450;-56
2022/05/30 01:46:50;;;;;;;;;;;9.20;99.90;;;;;;4892874;29;19912;-56
2022/05/30 01:49:15;;;;;;;;;;;9.20;99.90;;;;;;4891415;29;19912;-56
2022/05/30 01:51:42;;;;;;;;;;;9.20;99.90;;;;;;4890689;29;19971;-56
2022/05/30 01:54:08;;;;;;;;;;;9.20;99.90;;;;;;4891108;29;19923;-56
2022/05/30 01:56:33;;;;;;;;;;;9.20;99.90;;;;;;4891146;29;19911;-56
2022/05/30 01:58:59;;;;;;;;;;;9.30;99.90;;;;;;4890858;29;19911;-56
2022/05/30 02:01:26;;;;;;;;;;;9.20;99.90;;;;;;4891338;29;19950;-56
2022/05/30 02:03:52;;;;;;;;;;;9.40;99.90;;;;;;4888476;29;19938;-56
2022/05/30 02:06:19;;;;;;;;;;;9.30;99.90;;;;;;4892604;29;19954;-56
2022/05/30 02:08:45;;;;;;;;;;;9.30;99.90;;;;;;4890328;29;19907;-55
2022/05/30 02:11:11;;;;;;;;;;;9.40;99.90;;;;;;4891460;29;19918;-56
2022/05/30 02:13:37;;;;;;;;;;;9.30;99.90;;;;;;4891414;29;20424;-56
2022/05/30 02:18:48;;;;;;;;;;;9.20;99.90;;;;;;4898368;29;20010;-56
2022/05/30 02:21:14;;;;;;;;;;;9.40;99.90;;;;;;4893522;29;19990;-56
2022/05/30 02:23:39;;;;;;;;;;;9.40;99.90;;;;;;4891247;29;19918;-57
2022/05/30 02:26:05;;;;;;;;;;;9.30;99.90;;;;;;4890902;29;19919;-56
2022/05/30 02:28:30;;;;;;;;;;;9.30;99.90;;;;;;4892156;29;19911;-56
2022/05/30 02:30:57;;;;;;;;;;;9.30;99.90;;;;;;4890837;29;19917;-57
2022/05/30 02:39:01;;;;;;;;;;;9.30;99.90;;;;;;4884709;29;19917;-56
2022/05/30 02:41:27;;;;;;;;;;;9.10;99.90;;;;;;4890854;29;19911;-56
2022/05/30 02:43:52;;;;;;;;;;;9.20;99.90;;;;;;4890347;29;19919;-56
2022/05/30 02:46:18;;;;;;;;;;;9.10;99.90;;;;;;4890926;29;19911;-56
2022/05/30 02:48:44;;;;;;;;;;;9.10;99.90;;;;;;4890005;29;19912;-57
2022/05/30 02:51:09;;;;;;;;;;;9.30;99.90;;;;;;4891025;29;19942;-56
2022/05/30 02:53:35;;;;;;;;;;;9.30;99.90;;;;;;4894522;29;20231;-56
2022/05/30 02:56:01;;;;;;;;;;;9.30;99.90;;;;;;4893872;29;19911;-56
2022/05/30 02:58:26;;;;;;;;;;;9.20;99.90;;;;;;4896920;29;20421;-56
2022/05/30 03:00:52;;;;;;;;;;;9.20;99.90;;;;;;4896260;29;20304;-56
2022/05/30 03:03:18;;;;;;;;;;;9.20;99.90;;;;;;4894823;29;19926;-56
2022/05/30 03:05:44;;;;;;;;;;;9.20;99.90;;;;;;4893442;29;20443;-56
2022/05/30 03:08:09;;;;;;;;;;;9.10;99.90;;;;;;4895555;29;19911;-56
2022/05/30 03:10:35;;;;;;;;;;;9.20;99.90;;;;;;4894866;29;19965;-56
2022/05/30 03:13:00;;;;;;;;;;;9.10;99.90;;;;;;4893901;29;20641;-56
2022/05/30 03:15:26;;;;;;;;;;;9.20;99.90;;;;;;4894874;29;19911;-56
2022/05/30 03:17:51;;;;;;;;;;;9.20;99.90;;;;;;4894420;29;19916;-56
2022/05/30 03:20:17;;;;;;;;;;;9.20;99.90;;;;;;4894513;29;20727;-56
2022/05/30 03:22:43;;;;;;;;;;;9.30;99.90;;;;;;4894316;29;20038;-56
2022/05/30 03:25:08;;;;;;;;;;;9.30;99.90;;;;;;4895088;29;19998;-55
2022/05/30 03:27:34;;;;;;;;;;;9.30;99.90;;;;;;4894322;29;19915;-56
2022/05/30 03:29:59;;;;;;;;;;;9.40;99.90;;;;;;4893969;29;19911;-55
2022/05/30 03:32:25;;;;;;;;;;;9.50;99.90;;;;;;4894952;29;20291;-56
2022/05/30 03:34:50;;;;;;;;;;;9.40;99.90;;;;;;4892039;29;20063;-55
2022/05/30 03:37:16;;;;;;;;;;;9.40;99.90;;;;;;4894513;29;19914;-55
2022/05/30 03:39:41;;;;;;;;;;;9.40;99.90;;;;;;4896498;29;20002;-56
2022/05/30 03:42:13;;;;;;;;;;;9.40;99.90;;;;;;4896145;29;19947;-56
2022/05/30 03:44:39;;;;;;;;;;;9.40;99.90;;;;;;4893855;29;19911;-56
2022/05/30 03:47:04;;;;;;;;;;;9.40;99.90;;;;;;4892762;29;19912;-56
2022/05/30 03:49:30;;;;;;;;;;;9.40;99.90;;;;;;4894065;29;19911;-55
2022/05/30 03:51:55;;;;;;;;;;;9.50;99.90;;;;;;4891489;29;19911;-56
2022/05/30 03:54:21;;;;;;;;;;;9.40;99.90;;;;;;4894105;29;20641;-56
2022/05/30 03:56:46;;;;;;;;;;;9.40;99.90;;;;;;4893309;29;20799;-56
2022/05/30 03:59:12;;;;;;;;;;;9.50;99.90;;;;;;4894079;29;19915;-57
2022/05/30 04:01:38;;;;;;;;;;;9.50;99.90;;;;;;4894139;29;20573;-56
2022/05/30 04:04:04;;;;;;;;;;;9.60;99.90;;;;;;4892947;29;19962;-56
2022/05/30 04:06:29;;;;;;;;;;;9.50;99.90;;;;;;4897882;29;19967;-55
2022/05/30 04:08:54;;;;;;;;;;;9.30;99.90;;;;;;4894674;29;19971;-56
2022/05/30 04:11:20;;;;;;;;;;;9.30;99.90;;;;;;4896394;29;20350;-55
2022/05/30 04:13:45;;;;;;;;;;;9.30;99.90;;;;;;4893019;29;19915;-56
2022/05/30 04:16:12;;;;;;;;;;;9.30;99.90;;;;;;4893990;29;19916;-56
2022/05/30 04:18:38;;;;;;;;;;;9.20;99.90;;;;;;4897519;29;19931;-55
2022/05/30 04:21:07;;;;;;;;;;;9.30;99.90;;;;;;4895421;29;20038;-55
2022/05/30 04:23:33;;;;;;;;;;;9.20;99.90;;;;;;4893787;29;19915;-56
2022/05/30 04:25:59;;;;;;;;;;;9.10;99.90;;;;;;4893207;29;19912;-56
2022/05/30 04:28:25;;;;;;;;;;;9.20;99.90;;;;;;4894554;29;20489;-56
2022/05/30 04:30:50;;;;;;;;;;;9.20;99.90;;;;;;4893347;29;20046;-56
2022/05/30 04:33:16;;;;;;;;;;;9.30;99.90;;;;;;4891337;29;19930;-56
2022/05/30 04:35:42;;;;;;;;;;;9.30;99.90;;;;;;4892909;29;19990;-56
2022/05/30 04:38:08;;;;;;;;;;;9.40;99.90;;;;;;4892960;29;19935;-55
2022/05/30 04:40:33;;;;;;;;;;;9.50;99.90;;;;;;4893304;29;19911;-56
2022/05/30 04:42:59;;;;;;;;;;;9.40;99.90;;;;;;4892208;29;20376;-55
2022/05/30 04:45:24;;;;;;;;;;;9.40;99.90;;;;;;4893180;29;19918;-56
2022/05/30 04:47:50;;;;;;;;;;;9.40;99.90;;;;;;4892320;29;19965;-56
2022/05/30 04:50:16;;;;;;;;;;;9.50;99.90;;;;;;4893103;29;19983;-56
2022/05/30 04:52:42;;;;;;;;;;;9.60;99.90;;;;;;4892633;29;19945;-55
2022/05/30 04:55:09;;;;;;;;;;;9.60;99.90;;;;;;4892921;29;20284;-56
2022/05/30 04:57:45;;;;;;;;;;;9.50;99.90;;;;;;4892953;29;19918;-56
2022/05/30 05:00:12;;;;;;;;;;;9.60;99.90;;;;;;4891478;29;19907;-56
2022/05/30 05:02:37;;;;;;;;;;;9.70;99.90;;;;;;4898620;29;19907;-57
2022/05/30 05:05:03;;;;;;;;;;;9.60;99.90;;;;;;4890638;29;19946;-56
2022/05/30 05:07:34;;;;;;;;;;;9.70;99.90;;;;;;4892934;29;19914;-56
2022/05/30 05:10:03;;;;;;;;;;;10.00;99.90;;;;;;4893403;29;20542;-55
2022/05/30 05:12:28;;;;;;;;;;;10.00;99.90;;;;;;4892642;29;19970;-55
2022/05/30 05:14:53;;;;;;;;;;;9.90;99.90;;;;;;4891700;29;19950;-56
2022/05/30 05:17:21;;;;;;;;;;;9.90;99.90;;;;;;4892812;29;19911;-56
2022/05/30 05:19:46;;;;;;;;;;;10.00;99.90;;;;;;4890967;29;19946;-56
2022/05/30 05:22:14;;;;;;;;;;;10.00;99.90;;;;;;4891021;29;20006;-56
2022/05/30 05:24:39;;;;;;;;;;;10.30;99.90;;;;;;4890889;29;20334;-56
2022/05/30 05:27:05;;;;;;;;;;;10.40;99.90;;;;;;4890408;29;19915;-56
2022/05/30 05:29:31;;;;;;;;;;;10.30;99.90;;;;;;4889459;29;19912;-56
2022/05/30 05:31:57;;;;;;;;;;;10.40;99.90;;;;;;4890568;29;19916;-56
2022/05/30 05:34:23;;;;;;;;;;;10.40;99.90;;;;;;4889408;29;20348;-56
2022/05/30 05:36:49;;;;;;;;;;;10.30;99.90;;;;;;4890763;29;19911;-55
2022/05/30 05:39:15;;;;;;;;;;;10.50;99.90;;;;;;4891992;29;19908;-56
2022/05/30 05:41:42;;;;;;;;;;;10.50;99.90;;;;;;4893538;29;19965;-56
2022/05/30 05:44:07;;;;;;;;;;;10.40;99.90;;;;;;4892809;29;20022;-56
2022/05/30 05:46:33;;;;;;;;;;;10.60;99.90;;;;;;4890465;29;20326;-56
2022/05/30 05:48:59;;;;;;;;;;;10.70;99.90;;;;;;4890863;29;19915;-56
2022/05/30 05:51:25;;;;;;;;;;;11.00;99.90;;;;;;4892305;29;20431;-56
2022/05/30 05:53:51;;;;;;;;;;;11.00;99.90;;;;;;4889954;29;20018;-56
2022/05/30 05:56:18;;;;;;;;;;;10.90;99.90;;;;;;4891242;29;20033;-56
2022/05/30 05:58:44;;;;;;;;;;;10.80;99.90;;;;;;4890530;29;19919;-55
2022/05/30 06:01:10;;;;;;;;;;;11.00;99.90;;;;;;4890532;29;19927;-55
2022/05/30 06:03:35;;;;;;;;;;;11.10;99.90;;;;;;4889571;29;19947;-56
2022/05/30 06:06:04;;;;;;;;;;;11.50;99.90;;;;;;4892985;29;19915;-56
2022/05/30 06:08:30;;;;;;;;;;;11.50;99.90;;;;;;4890682;29;20027;-56
2022/05/30 06:11:14;;;;;;;;;;;11.40;99.90;;;;;;4889861;29;20010;-56
2022/05/30 06:13:40;;;;;;;;;;;11.50;99.90;;;;;;4890674;29;19938;-57
2022/05/30 06:16:10;;;;;;;;;;;11.40;99.90;;;;;;4890101;29;19963;-55
2022/05/30 06:18:35;;;;;;;;;;;11.60;99.90;;;;;;4893780;29;20364;-56
2022/05/30 06:21:01;;;;;;;;;;;11.50;99.90;;;;;;4891755;29;19922;-56
2022/05/30 06:23:27;;;;;;;;;;;11.40;99.90;;;;;;4893421;29;19919;-56
2022/05/30 06:25:52;;;;;;;;;;;11.30;99.90;;;;;;4873907;29;19911;-56
2022/05/30 06:28:18;;;;;;;;;;;11.30;99.90;;;;;;4894109;29;19907;-56
2022/05/30 06:30:43;;;;;;;;;;;11.50;99.90;;;;;;4895983;29;20061;-56
2022/05/30 06:33:09;;;;;;;;;;;11.60;99.90;;;;;;4894163;29;19919;-56
2022/05/30 06:35:38;;;;;;;;;;;12.20;99.90;;;;;;4892441;29;19930;-56
2022/05/30 06:38:03;;;;;;;;;;;12.60;99.90;;;;;;4892713;29;20417;-56
2022/05/30 06:40:29;;;;;;;;;;;12.90;99.90;;;;;;4893626;29;19912;-56
2022/05/30 06:42:54;;;;;;;;;;;12.50;99.90;;;;;;4893020;29;19983;-56
2022/05/30 06:45:20;;;;;;;;;;;12.40;99.90;;;;;;4893579;29;20356;-56
2022/05/30 06:47:45;;;;;;;;;;;12.50;99.90;;;;;;4893136;29;20376;-56
2022/05/30 06:50:11;;;;;;;;;;;12.20;99.90;;;;;;4893511;29;19967;-56
2022/05/30 06:52:36;;;;;;;;;;;12.30;99.90;;;;;;4893505;29;19958;-56
2022/05/30 06:55:02;;;;;;;;;;;12.30;99.90;;;;;;4892559;29;19918;-56
2022/05/30 07:00:13;;;;;;;;;;;12.10;99.90;;;;;;4893638;29;19923;-56
2022/05/30 07:02:39;;;;;;;;;;;12.10;99.90;;;;;;4898774;29;20253;-56
2022/05/30 07:05:05;;;;;;;;;;;12.10;99.90;;;;;;4892989;29;19926;-57
2022/05/30 07:07:30;;;;;;;;;;;12.50;99.90;;;;;;4893114;29;20421;-57
2022/05/30 07:09:55;;;;;;;;;;;12.40;99.90;;;;;;4893193;29;19911;-56
2022/05/30 07:12:21;;;;;;;;;;;12.20;99.90;;;;;;4895037;29;20404;-56
2022/05/30 07:14:46;;;;;;;;;;;12.40;99.90;;;;;;4893387;29;20001;-55
2022/05/30 07:17:12;;;;;;;;;;;12.60;99.90;;;;;;4894684;29;19934;-56
2022/05/30 07:19:38;;;;;;;;;;;13.30;99.90;;;;;;4893014;29;19912;-56
2022/05/30 07:22:03;;;;;;;;;;;13.60;99.90;;;;;;4892356;29;19911;-56
2022/05/30 07:24:29;;;;;;;;;;;13.50;99.90;;;;;;4893117;29;19911;-56
2022/05/30 07:26:54;;;;;;;;;;;13.10;99.90;;;;;;4892236;29;20362;-57
2022/05/30 07:29:20;;;;;;;;;;;13.30;99.90;;;;;;4892660;29;20013;-56
2022/05/30 07:31:45;;;;;;;;;;;12.80;99.90;;;;;;4892608;29;19923;-56
2022/05/30 07:34:11;;;;;;;;;;;13.20;99.90;;;;;;4890463;29;20523;-56
2022/05/30 07:36:36;;;;;;;;;;;13.40;99.90;;;;;;4893229;29;19918;-56
2022/05/30 07:39:03;;;;;;;;;;;13.50;99.90;;;;;;4892531;29;19950;-55
2022/05/30 07:41:30;;;;;;;;;;;13.60;99.90;;;;;;4893988;29;19907;-56
2022/05/30 07:43:55;;;;;;;;;;;13.70;99.90;;;;;;4894837;29;19907;-56
2022/05/30 07:46:21;;;;;;;;;;;13.50;99.90;;;;;;4894797;29;20527;-55
2022/05/30 07:48:47;;;;;;;;;;;13.10;99.90;;;;;;4892334;29;20001;-57
2022/05/30 07:51:13;;;;;;;;;;;13.10;99.90;;;;;;4892337;29;19975;-56
2022/05/30 07:53:39;;;;;;;;;;;13.30;99.90;;;;;;4893273;29;20010;-56
2022/05/30 07:56:06;;;;;;;;;;;14.00;99.90;;;;;;4892124;29;19908;-56
2022/05/30 07:58:32;;;;;;;;;;;14.10;99.90;;;;;;4892518;29;19916;-56
2022/05/30 08:00:57;;;;;;;;;;;14.40;99.90;;;;;;4891570;29;19915;-56
2022/05/30 08:03:25;;;;;;;;;;;14.80;99.90;;;;;;4889518;29;20384;-56
2022/05/30 08:05:52;;;;;;;;;;;15.00;99.90;;;;;;4891367;29;19931;-55
2022/05/30 08:08:18;;;;;;;;;;;14.60;99.90;;;;;;4892007;29;20022;-56
2022/05/30 08:10:44;;;;;;;;;;;14.00;99.90;;;;;;4891696;29;19959;-55
2022/05/30 08:13:09;;;;;;;;;;;14.80;99.90;;;;;;4891249;29;20036;-56
2022/05/30 08:15:35;;;;;;;;;;;14.70;99.90;;;;;;4891704;29;19946;-56
2022/05/30 08:18:01;;;;;;;;;;;14.90;99.90;;;;;;4891872;29;19987;-56
2022/05/30 08:20:28;;;;;;;;;;;14.90;99.90;;;;;;4890576;29;19970;-56
2022/05/30 08:22:54;;;;;;;;;;;15.00;99.90;;;;;;4893505;29;19908;-56
2022/05/30 08:25:19;;;;;;;;;;;15.00;99.90;;;;;;4894800;29;20518;-56
2022/05/30 08:27:46;;;;;;;;;;;14.70;99.90;;;;;;4895002;29;20360;-56
2022/05/30 08:30:13;;;;;;;;;;;13.70;99.90;;;;;;4877779;29;20013;-56
2022/05/30 08:32:40;;;;;;;;;;;14.20;99.90;;;;;;4894806;29;19919;-56
2022/05/30 08:35:06;;;;;;;;;;;14.40;99.90;;;;;;4891872;29;20055;-57
2022/05/30 08:37:33;;;;;;;;;;;14.50;99.90;;;;;;4892784;29;19918;-56
2022/05/30 08:42:48;;;;;;;;;;;14.70;99.90;;;;;;4891753;29;19919;-56
2022/05/30 08:45:16;;;;;;;;;;;15.40;99.90;;;;;;4890755;29;19919;-56
2022/05/30 08:47:44;;;;;;;;;;;16.10;99.90;;;;;;4892180;29;20166;-56
2022/05/30 08:50:31;;;;;;;;;;;16.90;98.80;;;;;;4889984;29;20316;-56
2022/05/30 08:53:25;;;;;;;;;;;16.90;97.20;;;;;;4857486;29;19916;-56
2022/05/30 08:55:55;;;;;;;;;;;17.20;96.10;;;;;;4880448;29;19911;-56
2022/05/30 08:58:29;;;;;;;;;;;18.40;94.80;;;;;;4890905;29;20506;-56
2022/05/30 09:01:03;;;;;;;;;;;18.90;92.80;;;;;;4887319;29;19946;-56
2022/05/30 09:03:37;;;;;;;;;;;18.40;92.00;;;;;;4888907;29;19915;-57
2022/05/30 09:06:15;;;;;;;;;;;18.20;92.00;;;;;;4888564;29;20015;-56
2022/05/30 09:08:50;;;;;;;;;;;17.90;92.70;;;;;;4890664;29;19941;-56
2022/05/30 09:11:24;;;;;;;;;;;17.00;94.00;;;;;;4889114;29;20372;-56
2022/05/30 09:13:51;;;;;;;;;;;16.40;96.80;;;;;;4890211;29;19915;-56
2022/05/30 09:16:20;;;;;;;;;;;17.70;95.00;;;;;;4890072;29;20444;-56
2022/05/30 09:18:50;;;;;;;;;;;18.10;93.20;;;;;;4894488;29;19918;-56
2022/05/30 09:21:16;;;;;;;;;;;17.40;93.80;;;;;;4889637;29;19913;-57
2022/05/30 09:23:42;;;;;;;;;;;16.30;94.80;;;;;;4891395;29;20025;-56
2022/05/30 09:26:08;;;;;;;;;;;;;;;;;;4890006;29;19911;-56
2022/05/30 09:28:35;;;;;;;;;;;15.90;95.10;;;;;;4891566;29;19984;-56
2022/05/30 09:31:06;;;;;;;;;;;15.40;96.80;;;;;;4889720;29;19918;-56
2022/05/30 09:33:31;;;;;;;;;;;15.70;96.00;;;;;;4888296;29;19919;-56
2022/05/30 09:36:17;;;;;;;;;;;16.00;96.20;;;;;;4889919;29;19937;-57
2022/05/30 09:38:45;;;;;;;;;;;16.40;96.60;;;;;;4890282;29;19929;-56
2022/05/30 09:41:12;;;;;;;;;;;16.50;96.20;;;;;;4888072;29;19911;-56
2022/05/30 09:43:49;;;;;;;;;;;16.50;95.50;;;;;;4890370;29;19911;-56
2022/05/30 09:46:21;;;;;;;;;;;16.50;95.60;;;;;;4890757;29;19911;-56
2022/05/30 09:49:04;;;;;;;;;;;16.10;95.30;;;;;;4891184;29;20225;-56
2022/05/30 09:51:34;;;;;;;;;;;15.80;94.60;;;;;;4890916;29;20387;-56
2022/05/30 09:54:00;;;;;;;;;;;15.90;94.60;;;;;;4887070;29;19915;-56
2022/05/30 09:56:27;;;;;;;;;;;16.00;96.10;;;;;;4890068;29;19943;-56
2022/05/30 09:59:04;;;;;;;;;;;16.60;95.00;;;;;;4891713;29;19927;-56
2022/05/30 10:01:31;;;;;;;;;;;16.70;91.90;;;;;;4894672;29;19908;-56
2022/05/30 10:04:14;;;;;;;;;;;16.60;93.50;;;;;;4893471;29;19927;-56
2022/05/30 10:06:39;;;;;;;;;;;16.50;93.50;;;;;;4894586;29;19922;-56
2022/05/30 10:09:08;;;;;;;;;;;15.80;94.40;;;;;;4895462;29;19991;-57
2022/05/30 10:11:34;;;;;;;;;;;16.20;94.70;;;;;;4894223;29;19911;-55
2022/05/30 10:14:15;;;;;;;;;;;16.20;96.10;;;;;;4893640;29;19993;-56
2022/05/30 10:16:41;;;;;;;;;;;16.40;94.40;;;;;;4894193;29;19959;-56
2022/05/30 10:19:10;;;;;;;;;;;16.80;94.20;;;;;;4893088;29;19953;-56
2022/05/30 10:30:58;;;;;;;;;;;17.00;95.20;;;;;;4893723;29;19955;-56
2022/05/30 10:33:42;;;;;;;;;;;16.90;93.30;;;;;;4888037;29;20022;-56
2022/05/30 10:36:40;;;;;;;;;;;16.60;93.70;;;;;;4893025;29;19926;-56
2022/05/30 10:39:25;;;;;;;;;;;16.80;94.60;;;;;;4867515;29;19937;-57
2022/05/30 10:41:56;;;;;;;;;;;16.90;93.30;;;;;;4896964;29;20461;-56
2022/05/30 10:44:43;;;;;;;;;;;16.80;94.10;;;;;;4896023;29;19921;-55
2022/05/30 10:47:20;;;;;;;;;;;17.30;92.70;;;;;;4891018;29;19912;-56
2022/05/30 10:49:49;;;;;;;;;;;17.30;92.40;;;;;;4893315;29;19938;-55
2022/05/30 10:52:25;;;;;;;;;;;17.00;93.20;;;;;;4893873;29;19912;-56
2022/05/30 10:55:02;;;;;;;;;;;17.30;93.30;;;;;;4892564;29;19967;-55
2022/05/30 10:57:41;;;;;;;;;;;17.00;91.50;;;;;;4894943;29;19911;-56
2022/05/30 11:00:10;;;;;;;;;;;17.30;91.90;;;;;;4891616;29;19918;-57
2022/05/30 11:02:57;;;;;;;;;;;18.20;91.90;;;;;;4894234;29;19937;-56
2022/05/30 11:05:35;;;;;;;;;;;18.60;90.60;;;;;;4891090;29;19923;-56
2022/05/30 11:08:12;;;;;;;;;;;17.90;89.00;;;;;;4893069;29;19911;-56
2022/05/30 11:10:51;;;;;;;;;;;17.60;91.30;;;;;;4893591;29;19975;-57
2022/05/30 11:13:22;;;;;;;;;;;18.00;89.40;;;;;;4892674;29;19970;-55
2022/05/30 11:15:50;;;;;;;;;;;18.10;90.90;;;;;;4894297;29;19915;-56
2022/05/30 11:18:31;;;;;;;;;;;18.00;90.00;;;;;;4896613;29;19911;-56
2022/05/30 11:21:00;;;;;;;;;;;17.80;89.80;;;;;;4891778;29;19953;-56
2022/05/30 11:23:26;;;;;;;;;;;18.00;90.30;;;;;;4896731;29;20367;-56
2022/05/30 11:26:10;;;;;;;;;;;17.50;89.50;;;;;;4895480;29;19922;-56
2022/05/30 11:28:54;;;;;;;;;;;17.30;90.70;;;;;;4895053;29;20352;-56
2022/05/30 11:31:42;;;;;;;;;;;17.80;91.30;;;;;;4891676;29;19907;-56
2022/05/30 11:34:28;;;;;;;;;;;18.30;91.40;;;;;;4877255;29;19923;-56
2022/05/30 11:37:01;;;;;;;;;;;18.00;89.50;;;;;;4894418;29;19912;-56
2022/05/30 11:39:26;;;;;;;;;;;17.60;90.00;;;;;;4894483;29;19919;-56
2022/05/30 11:42:02;;;;;;;;;;;17.70;90.60;;;;;;4893852;29;19919;-56
2022/05/30 11:44:36;;;;;;;;;;;17.70;90.90;;;;;;4893587;29;20702;-56
2022/05/30 11:47:20;;;;;;;;;;;18.70;88.80;;;;;;4890229;29;20413;-56
2022/05/30 11:49:58;;;;;;;;;;;19.30;90.20;;;;;;4892896;29;19915;-56
2022/05/30 11:52:44;;;;;;;;;;;18.70;90.60;;;;;;4892516;29;20666;-56
2022/05/30 11:55:15;;;;;;;;;;;19.30;88.90;;;;;;4890219;29;19912;-56
2022/05/30 11:57:47;;;;;;;;;;;19.80;85.10;;;;;;4892988;29;19915;-57
2022/05/30 12:00:25;;;;;;;;;;;20.00;85.70;;;;;;4889630;29;19911;-57
2022/05/30 12:02:55;;;;;;;;;;;19.40;86.10;;;;;;4894866;29;19926;-56
2022/05/30 12:05:39;;;;;;;;;;;18.70;86.80;;;;;;4892014;29;19931;-56
2022/05/30 12:08:05;;;;;;;;;;;19.00;84.00;;;;;;4891996;29;19915;-56
2022/05/30 12:10:33;;;;;;;;;;;18.90;86.90;;;;;;4893585;29;19915;-56
2022/05/30 12:13:09;;;;;;;;;;;18.60;86.10;;;;;;4891350;29;20295;-56
2022/05/30 12:15:43;;;;;;;;;;;17.80;88.20;;;;;;4892643;29;20402;-56
2022/05/30 12:24:12;;;;;;;;;;;18.50;86.00;;;;;;4892176;29;19917;-56
2022/05/30 12:26:54;;;;;;;;;;;17.80;88.60;;;;;;4892497;29;19915;-57
2022/05/30 12:29:37;;;;;;;;;;;18.60;84.80;;;;;;4890164;29;19918;-57
2022/05/30 12:32:17;;;;;;;;;;;19.00;86.20;;;;;;4892044;29;19962;-56
2022/05/30 12:34:57;;;;;;;;;;;18.60;84.10;;;;;;4890815;29;19935;-56
2022/05/30 12:37:38;;;;;;;;;;;19.00;85.50;;;;;;4890197;29;19922;-55
2022/05/30 12:40:04;;;;;;;;;;;18.50;84.80;;;;;;4888735;29;20305;-56
2022/05/30 12:42:34;;;;;;;;;;;17.80;87.00;;;;;;4895147;29;19916;-56
2022/05/30 12:45:20;;;;;;;;;;;18.00;88.10;;;;;;4894680;29;19908;-56
2022/05/30 12:47:53;;;;;;;;;;;17.70;89.30;;;;;;4889179;29;19954;-56
2022/05/30 12:50:31;;;;;;;;;;;17.50;88.10;;;;;;4891382;29;19930;-56
2022/05/30 12:52:58;;;;;;;;;;;18.40;86.90;;;;;;4889980;29;19915;-57
2022/05/30 12:55:39;;;;;;;;;;;18.80;84.00;;;;;;4891059;29;19911;-56
2022/05/30 12:58:05;;;;;;;;;;;19.10;84.80;;;;;;4887621;29;20368;-56
2022/05/30 13:00:40;;;;;;;;;;;19.50;82.20;;;;;;4892084;29;20280;-56
2022/05/30 13:03:10;;;;;;;;;;;18.80;84.50;;;;;;4891440;29;19946;-56
2022/05/30 13:05:38;;;;;;;;;;;19.00;86.80;;;;;;4872959;29;19926;-56
2022/05/30 13:08:22;;;;;;;;;;;19.40;83.90;;;;;;4891119;29;19946;-56
2022/05/30 13:10:50;;;;;;;;;;;19.80;82.70;;;;;;4891460;29;20015;-56
2022/05/30 13:13:19;;;;;;;;;;;19.80;82.80;;;;;;4887513;29;19916;-56
2022/05/30 13:15:52;;;;;;;;;;;19.10;84.80;;;;;;4891400;29;19922;-56
2022/05/30 13:18:20;;;;;;;;;;;19.00;83.10;;;;;;4893734;29;19942;-56
2022/05/30 13:20:49;;;;;;;;;;;19.30;83.70;;;;;;4891528;29;19918;-56
2022/05/30 13:23:16;;;;;;;;;;;18.90;83.50;;;;;;4893015;29;19959;-57
2022/05/30 13:25:47;;;;;;;;;;;19.20;83.40;;;;;;4894103;29;20474;-56
2022/05/30 13:28:20;;;;;;;;;;;19.30;82.50;;;;;;4890993;29;20391;-56
2022/05/30 13:30:45;;;;;;;;;;;19.30;82.60;;;;;;4891380;29;19911;-56
2022/05/30 13:33:29;;;;;;;;;;;20.60;81.50;;;;;;4889673;29;19923;-56
2022/05/30 13:36:00;;;;;;;;;;;21.20;79.50;;;;;;4890989;29;19934;-57
2022/05/30 13:38:28;;;;;;;;;;;20.70;81.80;;;;;;4889514;29;19912;-56
2022/05/30 13:40:53;;;;;;;;;;;20.40;79.10;;;;;;4891150;29;19911;-56
2022/05/30 13:43:21;;;;;;;;;;;20.10;80.60;;;;;;4891168;29;20025;-56
2022/05/30 13:45:46;;;;;;;;;;;19.50;82.10;;;;;;4891166;29;20293;-56
2022/05/30 13:48:16;;;;;;;;;;;20.30;81.30;;;;;;4890521;29;19915;-55
2022/05/30 13:51:01;;;;;;;;;;;20.00;79.10;;;;;;4891594;29;19914;-56
2022/05/30 13:53:35;;;;;;;;;;;20.00;81.60;;;;;;4890325;29;19922;-56
2022/05/30 13:56:10;;;;;;;;;;;20.20;78.90;;;;;;4888009;29;19935;-57
2022/05/30 13:58:37;;;;;;;;;;;19.70;79.70;;;;;;4891032;29;19911;-56
2022/05/30 14:01:07;;;;;;;;;;;19.70;81.00;;;;;;4891524;29;19915;-57
2022/05/30 14:03:33;;;;;;;;;;;18.40;81.20;;;;;;4891964;29;19927;-56
2022/05/30 14:05:58;;;;;;;;;;;18.10;84.10;;;;;;4894215;29;19915;-56
2022/05/30 14:08:30;;;;;;;;;;;18.40;82.80;;;;;;4891046;29;19934;-56
2022/05/30 14:10:59;;;;;;;;;;;18.30;81.60;;;;;;4891152;29;19971;-56
2022/05/30 14:13:32;;;;;;;;;;;18.80;82.90;;;;;;4891872;29;19922;-56
2022/05/30 14:15:59;;;;;;;;;;;19.20;80.30;;;;;;4887488;29;19957;-56
2022/05/30 14:18:26;;;;;;;;;;;19.30;79.20;;;;;;4891792;29;19941;-56
2022/05/30 14:20:52;;;;;;;;;;;19.40;78.40;;;;;;4890488;29;19917;-57
2022/05/30 14:23:18;;;;;;;;;;;19.50;78.90;;;;;;4890369;29;20002;-56
2022/05/30 14:25:48;;;;;;;;;;;19.90;81.00;;;;;;4890856;29;19911;-57
2022/05/30 14:28:21;;;;;;;;;;;19.60;80.90;;;;;;4889165;29;20327;-56
2022/05/30 14:30:47;;;;;;;;;;;19.90;78.50;;;;;;4890559;29;20355;-56
2022/05/30 14:33:23;;;;;;;;;;;19.50;80.60;;;;;;4889754;29;19924;-57
2022/05/30 14:35:49;;;;;;;;;;;20.00;80.00;;;;;;4880833;29;20379;-57
2022/05/30 14:38:29;;;;;;;;;;;20.30;81.90;;;;;;4890549;29;19911;-56
2022/05/30 14:41:00;;;;;;;;;;;20.30;76.80;;;;;;4890718;29;19998;-56
2022/05/30 14:43:30;;;;;;;;;;;20.20;79.00;;;;;;4889792;29;20280;-57
2022/05/30 14:46:26;;;;;;;;;;;20.10;79.80;;;;;;4893240;29;19914;-57
2022/05/30 14:48:53;;;;;;;;;;;19.90;79.10;;;;;;4886928;29;19912;-56
2022/05/30 14:51:30;;;;;;;;;;;19.90;80.10;;;;;;4893688;29;19916;-56
2022/05/30 14:54:13;;;;;;;;;;;19.70;81.40;;;;;;4895869;29;20448;-56
2022/05/30 14:56:40;;;;;;;;;;;19.40;79.40;;;;;;4894139;29;19911;-57
2022/05/30 14:59:05;;;;;;;;;;;19.30;79.30;;;;;;4890629;29;20367;-55
2022/05/30 15:01:32;;;;;;;;;;;18.20;80.00;;;;;;4892934;29;19919;-56
2022/05/30 15:04:02;;;;;;;;;;;18.40;81.10;;;;;;4891746;29;19986;-56